Data for 03/24/2008

Time Sea-Level Adjusted Pressure Absolute Pressure Temperature Relative Humidity Dew Point   
(mb) (inHg) (mb) (inHg) (C) (F) (%) (C) (F)
00:05 1014 29.94 843 24.89 7.4 45.2 34 -7.3 18.8
00:10 1014 29.94 843 24.89 7.2 45 34 -7.6 18.4
00:15 1014 29.94 843 24.89 7.4 45.3 34 -7.4 18.7
00:20 1014 29.94 843 24.89 7.5 45.4 35 -7.2 19
00:25 1014 29.94 843 24.89 7.3 45.1 34 -7.5 18.5
00:30 1014 29.94 843 24.89 7.3 45.2 35 -7.1 19.3
00:35 1014 29.94 843 24.89 7.2 44.9 35 -7.1 19.2
00:40 1014 29.94 843 24.89 7.2 45 36 -6.9 19.5
00:45 1014 29.94 843 24.89 7.2 45 35 -7.3 18.9
00:50 1014 29.94 843 24.89 7.5 45.4 35 -7.1 19.2
00:55 1014 29.94 843 24.89 7.5 45.5 35 -6.9 19.6
01:00 1014 29.94 843 24.89 7.4 45.3 35 -7.1 19.2
01:05 1014 29.94 843 24.89 7.6 45.6 34 -7.2 19.1
01:10 1013 29.91 843 24.89 7.6 45.7 34 -7.2 19.1
01:15 1013 29.91 843 24.89 7.7 45.8 34 -7.2 19
01:20 1013 29.91 843 24.89 7.7 45.8 34 -7.2 19.1
01:25 1013 29.91 843 24.89 7.7 45.8 34 -7.3 18.9
01:30 1013 29.91 842 24.86 7.7 45.8 34 -7.2 19.1
01:35 1013 29.91 842 24.86 7.7 45.9 34 -7.3 18.9
01:40 1013 29.91 842 24.86 7.7 45.9 34 -7.1 19.2
01:45 1013 29.91 842 24.86 7.6 45.6 35 -7 19.3
01:50 1013 29.91 842 24.86 7.4 45.2 35 -6.9 19.5
01:55 1013 29.91 842 24.86 7.1 44.8 37 -6.4 20.4
02:00 1013 29.91 842 24.86 6.9 44.4 38 -6.5 20.3
02:05 1013 29.91 842 24.86 7 44.6 37 -6.7 19.9
02:10 1013 29.91 842 24.86 7.2 45 35 -7.1 19.3
02:15 1012 29.88 842 24.86 7.1 44.8 37 -6.7 19.9
02:20 1012 29.88 842 24.86 7 44.6 37 -6.6 20.1
02:25 1012 29.88 842 24.86 7 44.6 37 -6.6 20.2
02:30 1012 29.88 842 24.86 6.9 44.5 38 -6.5 20.3
02:35 1012 29.88 841 24.83 6.8 44.3 38 -6.3 20.6
02:40 1012 29.88 841 24.83 6.6 44 40 -6.1 21
02:45 1012 29.88 841 24.83 6.4 43.6 40 -6.3 20.7
02:50 1012 29.88 841 24.83 6.5 43.7 39 -6.4 20.4
02:55 1012 29.88 841 24.83 6.5 43.7 40 -6.3 20.7
03:00 1012 29.88 841 24.83 6.4 43.6 40 -6.2 20.9
03:05 1012 29.88 841 24.83 6.4 43.5 40 -6.2 20.9
03:10 1012 29.88 841 24.83 6.3 43.4 41 -6.1 21
03:15 1012 29.88 841 24.83 6.4 43.5 39 -6.5 20.3
03:20 1012 29.88 841 24.83 6.8 44.2 37 -6.8 19.8
03:25 1012 29.88 841 24.83 7.2 44.9 36 -6.9 19.5
03:30 1012 29.88 841 24.83 7.1 44.8 38 -6.4 20.4
03:35 1012 29.88 841 24.83 6.9 44.4 37 -6.7 19.9
03:40 1012 29.88 841 24.83 7.1 44.8 36 -7.1 19.2
03:45 1011 29.85 841 24.83 7.2 45 36 -6.9 19.6
03:50 1011 29.85 841 24.83 7.3 45.1 35 -7.1 19.3
03:55 1011 29.85 841 24.83 7.1 44.9 35 -7.2 19.1
04:00 1011 29.85 841 24.83 7.2 45 35 -7.2 19.1
04:05 1011 29.85 841 24.83 7.3 45.1 35 -7.1 19.2
04:10 1011 29.85 841 24.83 7.4 45.2 35 -7 19.4
04:15 1011 29.85 840 24.81 7.2 45 35 -7.1 19.3
04:20 1011 29.85 840 24.81 7.3 45.2 36 -6.8 19.8
04:25 1011 29.85 841 24.83 7.4 45.3 37 -6.4 20.5
04:30 1011 29.85 840 24.81 7.3 45.2 37 -6.2 20.8
04:35 1011 29.85 840 24.81 7.4 45.3 37 -6.2 20.8
04:40 1011 29.85 840 24.81 7.4 45.4 37 -6.4 20.6
04:45 1011 29.85 840 24.81 7.5 45.5 37 -6.3 20.7
04:50 1011 29.85 840 24.81 7.4 45.3 38 -6.1 21
04:55 1011 29.85 840 24.81 7.3 45.1 38 -6 21.2
05:00 1011 29.85 840 24.81 7 44.6 39 -6 21.3
05:05 1011 29.85 840 24.81 7 44.6 39 -5.9 21.3
05:10 1011 29.85 840 24.81 7.1 44.7 40 -5.7 21.8
05:15 1011 29.85 840 24.81 7 44.6 41 -5.3 22.4
05:20 1011 29.85 840 24.81 7.3 45.2 38 -6 21.2
05:25 1011 29.85 840 24.81 7.4 45.3 38 -5.9 21.4
05:30 1011 29.85 840 24.81 7.2 44.9 39 -5.9 21.4
05:35 1010 29.83 840 24.81 7.2 45 38 -6.2 20.8
05:40 1010 29.83 840 24.81 7.3 45.1 38 -6.1 21
05:45 1010 29.83 840 24.81 7.4 45.3 38 -6.1 21
05:50 1010 29.83 839 24.78 7.5 45.5 37 -6.1 21
05:55 1010 29.83 839 24.78 7.6 45.6 38 -5.8 21.6
06:00 1010 29.83 839 24.78 7.4 45.3 39 -5.8 21.5
06:05 1010 29.83 840 24.81 7.4 45.2 40 -5.4 22.3
06:10 1010 29.83 840 24.81 7.3 45.2 39 -5.7 21.7
06:15 1011 29.85 840 24.81 7.4 45.3 39 -5.5 22.1
06:20 1011 29.85 840 24.81 7.3 45.1 40 -5.4 22.3
06:25 1010 29.83 840 24.81 7.2 45 40 -5.4 22.4
06:30 1010 29.83 840 24.81 7 44.5 42 -5.1 22.8
06:35 1010 29.83 840 24.81 6.8 44.2 42 -5.3 22.5
06:40 1010 29.83 840 24.81 6.8 44.3 42 -5.3 22.4
06:45 1010 29.83 840 24.81 6.9 44.4 42 -5.3 22.5
06:50 1010 29.83 840 24.81 7 44.6 40 -5.6 21.8
06:55 1010 29.83 840 24.81 7.1 44.8 40 -5.6 21.9
07:00 1010 29.83 840 24.81 7.1 44.7 40 -5.7 21.8
07:05 1010 29.83 840 24.81 6.9 44.5 41 -5.5 22
07:10 1010 29.83 840 24.81 6.8 44.2 41 -5.6 22
07:15 1010 29.83 840 24.81 6.7 44.1 41 -5.6 21.9
07:20 1010 29.83 840 24.81 6.7 44.1 41 -5.6 21.9
07:25 1010 29.83 840 24.81 6.9 44.4 40 -5.7 21.8
07:30 1010 29.83 840 24.81 7 44.5 41 -5.5 22.1
07:35 1010 29.83 840 24.81 6.9 44.4 42 -5.2 22.7
07:40 1010 29.83 840 24.81 6.8 44.2 42 -5.1 22.8
07:45 1010 29.83 840 24.81 6.9 44.4 42 -5.1 22.8
07:50 1010 29.83 840 24.81 6.9 44.4 42 -5.1 22.7
07:55 1010 29.83 840 24.81 6.9 44.4 42 -5.1 22.8
08:00 1010 29.83 840 24.81 7 44.5 42 -5.1 22.9
08:05 1010 29.83 840 24.81 7 44.7 42 -5.1 22.9
08:10 1010 29.83 839 24.78 7.2 44.9 41 -5.1 22.8
08:15 1010 29.83 839 24.78 7.2 44.9 43 -4.7 23.5
08:20 1010 29.83 839 24.78 7.1 44.8 42 -4.8 23.3
08:25 1010 29.83 839 24.78 7.2 45 42 -4.8 23.4
08:30 1010 29.83 839 24.78 7.3 45.1 42 -4.7 23.5
08:35 1010 29.83 840 24.81 7.4 45.3 41 -4.9 23.2
08:40 1011 29.85 840 24.81 7.5 45.5 42 -4.6 23.7
08:45 1011 29.85 840 24.81 6.8 44.3 54 -1.8 28.8
08:50 1012 29.88 841 24.83 4.8 40.6 65 -1.3 29.6
08:55 1012 29.88 841 24.83 3.8 38.8 69 -1.3 29.6
09:00 1012 29.88 841 24.83 3.5 38.3 74 -0.7 30.8
09:05 1012 29.88 841 24.83 3.1 37.5 79 -0.2 31.7
09:10 1012 29.88 841 24.83 2.6 36.7 83 0 32
09:15 1012 29.88 841 24.83 2.4 36.4 86 0.3 32.6
09:20 1012 29.88 841 24.83 2.2 35.9 88 0.4 32.7
09:25 1012 29.88 842 24.86 1.7 35.1 90 0.3 32.5
09:30 1012 29.88 842 24.86 1.4 34.5 92 0.2 32.4
09:35 1012 29.88 842 24.86 1.2 34.2 93 0.2 32.4
09:40 1013 29.91 842 24.86 1.3 34.3 94 0.4 32.8
09:45 1013 29.91 842 24.86 1.4 34.5 94 0.6 33
09:50 1013 29.91 842 24.86 1.5 34.8 94 0.7 33.3
09:55 1013 29.91 842 24.86 1.6 34.9 94 0.8 33.4
10:00 1013 29.91 842 24.86 1.5 34.7 94 0.7 33.3
10:05 1013 29.91 842 24.86 1.3 34.4 95 0.6 33.1
10:10 1013 29.91 842 24.86 1.2 34.1 96 0.5 33
10:15 1013 29.91 842 24.86 1 33.9 96 0.5 32.9
10:20 1013 29.91 843 24.89 0.9 33.7 97 0.5 32.8
10:25 1013 29.91 843 24.89 0.7 33.3 98 0.4 32.7
10:30 1013 29.91 843 24.89 0.6 33.1 98 0.4 32.6
10:35 1013 29.91 843 24.89 0.6 33 99 0.4 32.7
10:40 1014 29.94 843 24.89 0.5 33 99 0.4 32.8
10:45 1014 29.94 843 24.89 0.6 33 100 0.5 33
10:50 1014 29.94 843 24.89 0.6 33.2 100 0.6 33.1
10:55 1014 29.94 843 24.89 0.6 33.1 100 0.6 33
11:00 1014 29.94 843 24.89 0.7 33.2 100 0.7 33.2
11:05 1014 29.94 843 24.89 0.7 33.3 100 0.7 33.3
11:10 1014 29.94 843 24.89 0.8 33.5 100 0.8 33.5
11:15 1014 29.94 843 24.89 0.8 33.5 116 3 37.3
11:20 1014 29.94 843 24.89 0.8 33.4 164 7.8 46
11:25 1014 29.94 843 24.89 0.6 33.1 164 7.6 45.7
11:30 1014 29.94 843 24.89 0.5 32.8 164 7.5 45.4
11:35 1014 29.94 843 24.89 0.4 32.8 164 7.4 45.4
11:40 1014 29.94 843 24.89 0.5 33 164 7.6 45.6
11:45 1014 29.94 843 24.89 0.7 33.3 164 7.7 45.9
11:50 1014 29.94 843 24.89 0.9 33.6 164 7.9 46.2
11:55 1014 29.94 843 24.89 1 33.9 164 8.1 46.5
12:00 1014 29.94 843 24.89 1.2 34.1 164 8.2 46.8
12:05 1014 29.94 843 24.89 1.3 34.4 164 8.4 47.1
12:10 1014 29.94 843 24.89 1.7 35.1 164 8.8 47.8
12:15 1014 29.94 843 24.89 2.1 35.8 164 9.2 48.6
12:20 1014 29.94 843 24.89 2.4 36.4 164 9.5 49.2
12:25 1014 29.94 843 24.89 3 37.3 164 10.1 50.2
12:30 1014 29.94 843 24.89 3.4 38.1 164 10.5 51
12:35 1013 29.91 843 24.89 3.7 38.7 164 10.9 51.6
12:40 1013 29.91 843 24.89 3.5 38.3 164 10.6 51.2
12:45 1013 29.91 843 24.89 3.3 37.9 84 0.8 33.4
12:50 1013 29.91 843 24.89 3.1 37.6 83 0.6 33.1
12:55 1013 29.91 843 24.89 3.2 37.7 82 0.5 32.8
13:00 1013 29.91 842 24.86 3.4 38.1 81 0.5 32.9
13:05 1013 29.91 843 24.89 4 39.2 80 0.9 33.6
13:10 1013 29.91 842 24.86 5 40.9 78 1.5 34.8
13:15 1013 29.91 842 24.86 5.6 42.1 73 1.2 34.2
13:20 1013 29.91 842 24.86 5.1 41.3 72 0.6 33.1
13:25 1013 29.91 842 24.86 5.1 41.1 71 0.3 32.5
13:30 1013 29.91 842 24.86 4.9 40.8 72 0.2 32.4
13:35 1013 29.91 842 24.86 5.3 41.5 70 0.3 32.5
13:40 1013 29.91 842 24.86 5.7 42.3 62 -1.1 30.1
13:45 1013 29.91 842 24.86 5.9 42.7 56 -2.2 28.1
13:50 1013 29.91 842 24.86 6.3 43.3 54 -2.4 27.7
13:55 1013 29.91 842 24.86 6.5 43.7 48 -3.6 25.5
14:00 1013 29.91 842 24.86 6.6 44 48 -3.5 25.7
14:05 1012 29.88 842 24.86 6.7 44.1 47 -3.9 25
14:10 1012 29.88 842 24.86 6.6 43.8 46 -4.2 24.5
14:15 1012 29.88 842 24.86 6.7 44 44 -4.6 23.6
14:20 1012 29.88 842 24.86 6.9 44.5 44 -4.6 23.8
14:25 1012 29.88 842 24.86 7 44.6 42 -5 23.1
14:30 1012 29.88 842 24.86 7 44.5 41 -5.5 22.2
14:35 1012 29.88 842 24.86 7.1 44.8 39 -5.8 21.6
14:40 1012 29.88 842 24.86 7.4 45.2 37 -6.5 20.3
14:45 1012 29.88 841 24.83 7.2 44.9 36 -7 19.3
14:50 1012 29.88 841 24.83 7 44.5 35 -7.4 18.7
14:55 1012 29.88 841 24.83 6.9 44.4 35 -7.7 18.2
15:00 1012 29.88 841 24.83 6.9 44.4 33 -8.1 17.4
15:05 1012 29.88 841 24.83 6.9 44.5 33 -8.1 17.4
15:10 1012 29.88 841 24.83 7.1 44.8 33 -8 17.5
15:15 1012 29.88 841 24.83 7.1 44.8 32 -8.4 16.8
15:20 1012 29.88 841 24.83 7 44.6 32 -8.4 16.8
15:25 1012 29.88 841 24.83 7 44.6 32 -8.8 16.2
15:30 1012 29.88 841 24.83 7.1 44.7 32 -8.4 16.9
15:35 1012 29.88 841 24.83 7.2 45 32 -8.5 16.8
15:40 1012 29.88 841 24.83 7.4 45.3 31 -8.6 16.5
15:45 1012 29.88 841 24.83 7.8 46.1 30 -8.6 16.5
15:50 1012 29.88 842 24.86 8.2 46.7 29 -8.6 16.5
15:55 1012 29.88 842 24.86 8.2 46.7 30 -8.5 16.7
16:00 1012 29.88 842 24.86 7.8 46.1 29 -8.9 15.9
16:05 1012 29.88 842 24.86 7.6 45.6 30 -9.1 15.6
16:10 1012 29.88 842 24.86 7.9 46.2 28 -9.3 15.2
16:15 1012 29.88 842 24.86 7.8 46 28 -9.5 15
16:20 1012 29.88 842 24.86 7.4 45.3 29 -9.7 14.6
16:25 1012 29.88 842 24.86 7.3 45.2 29 -9.6 14.7
16:30 1012 29.88 842 24.86 7.3 45.1 28 -10 14
16:35 1012 29.88 842 24.86 7.3 45.2 28 -10 14
16:40 1012 29.88 842 24.86 7.3 45.1 29 -9.6 14.7
16:45 1012 29.88 842 24.86 7.4 45.4 28 -9.9 14.3
16:50 1012 29.88 842 24.86 7.3 45.1 29 -9.7 14.5
16:55 1012 29.88 842 24.86 7.1 44.9 28 -10.3 13.4
17:00 1012 29.88 841 24.83 7.1 44.8 27 -10.6 12.9
17:05 1012 29.88 841 24.83 7.2 44.9 27 -10.7 12.7
17:10 1012 29.88 841 24.83 7.1 44.7 27 -10.9 12.4
17:15 1012 29.88 841 24.83 7 44.5 26 -11.5 11.3
17:20 1012 29.88 841 24.83 6.8 44.2 26 -11.5 11.3
17:25 1012 29.88 841 24.83 6.8 44.3 26 -11.5 11.2
17:30 1012 29.88 842 24.86 6.8 44.3 25 -11.7 11
17:35 1012 29.88 841 24.83 7 44.7 25 -11.6 11.1
17:40 1012 29.88 842 24.86 7.1 44.8 24 -12.3 9.8
17:45 1012 29.88 842 24.86 6.9 44.4 24 -12.4 9.7
17:50 1012 29.88 842 24.86 6.7 44 24 -12.5 9.4
17:55 1012 29.88 842 24.86 6.6 43.9 24 -12.5 9.5
18:00 1012 29.88 842 24.86 6.5 43.6 24 -13 8.6
18:05 1013 29.91 842 24.86 6.4 43.5 24 -12.9 8.7
18:10 1013 29.91 842 24.86 6.4 43.5 24 -12.7 9.2
18:15 1013 29.91 842 24.86 6.3 43.4 24 -12.7 9.1
18:20 1013 29.91 842 24.86 6.2 43.2 25 -12.5 9.5
18:25 1013 29.91 842 24.86 6.2 43.1 24 -12.9 8.8
18:30 1013 29.91 842 24.86 6.1 43 25 -12.7 9.2
18:35 1013 29.91 842 24.86 6 42.8 25 -12.8 8.9
18:40 1013 29.91 842 24.86 5.9 42.5 24 -13.2 8.3
18:45 1013 29.91 842 24.86 5.6 42.2 25 -12.8 8.9
18:50 1013 29.91 842 24.86 5.4 41.8 27 -12.3 9.8
18:55 1013 29.91 842 24.86 5.3 41.5 27 -12.3 9.9
19:00 1013 29.91 842 24.86 5.1 41.1 27 -12.4 9.7
19:05 1013 29.91 842 24.86 4.9 40.8 28 -12.3 9.9
19:10 1013 29.91 842 24.86 4.7 40.5 28 -12.2 10.1
19:15 1013 29.91 842 24.86 4.6 40.3 30 -11.5 11.3
19:20 1013 29.91 843 24.89 4.4 40 34 -10.2 13.6
19:25 1013 29.91 843 24.89 3.9 38.9 37 -9.6 14.7
19:30 1014 29.94 843 24.89 3.4 38.1 38 -9.5 14.8
19:35 1014 29.94 843 24.89 3.2 37.7 39 -9.3 15.2
19:40 1014 29.94 843 24.89 3.2 37.7 39 -9.5 15
19:45 1014 29.94 843 24.89 3.1 37.6 39 -9.5 14.9
19:50 1014 29.94 843 24.89 3.1 37.6 40 -9.3 15.2
19:55 1014 29.94 843 24.89 3 37.5 40 -9.2 15.4
20:00 1014 29.94 843 24.89 2.9 37.2 41 -9.2 15.4
20:05 1014 29.94 843 24.89 2.8 37 40 -9.4 15.1
20:10 1014 29.94 843 24.89 2.7 36.9 41 -9.3 15.3
20:15 1014 29.94 843 24.89 2.6 36.7 42 -9.1 15.7
20:20 1014 29.94 844 24.92 2.4 36.4 42 -9.2 15.4
20:25 1014 29.94 844 24.92 2.2 36 42 -9.3 15.2
20:30 1014 29.94 844 24.92 2.1 35.7 43 -9.4 15.1
20:35 1015 29.97 844 24.92 2 35.6 43 -9.5 15
20:40 1015 29.97 844 24.92 1.9 35.4 43 -9.3 15.2
20:45 1015 29.97 844 24.92 1.8 35.2 44 -9.3 15.3
20:50 1015 29.97 844 24.92 1.7 35 41 -10.2 13.6
20:55 1015 29.97 844 24.92 1.7 35 41 -10.4 13.3
21:00 1015 29.97 844 24.92 1.6 34.9 41 -10.4 13.3
21:05 1015 29.97 844 24.92 1.5 34.7 41 -10.4 13.3
21:10 1015 29.97 844 24.92 1.3 34.4 41 -10.6 13
21:15 1015 29.97 844 24.92 1.2 34.2 41 -10.6 12.9
21:20 1015 29.97 844 24.92 1.1 34 41 -10.6 12.9
21:25 1015 29.97 845 24.95 1 33.8 44 -10 13.9
21:30 1015 29.97 845 24.95 0.9 33.6 45 -9.8 14.4
21:35 1015 29.97 845 24.95 0.7 33.2 46 -9.8 14.4
21:40 1015 29.97 845 24.95 0.5 33 45 -10 14.1
21:45 1016 30 845 24.95 0.3 32.6 47 -9.8 14.4
21:50 1016 30 845 24.95 0.3 32.6 46 -9.9 14.1
21:55 1016 30 845 24.95 0.3 32.6 45 -10.2 13.6
22:00 1016 30 845 24.95 0.4 32.8 44 -10.5 13
22:05 1016 30 845 24.95 0.5 32.8 43 -10.7 12.8
22:10 1016 30 845 24.95 0.3 32.6 44 -10.5 13.2
22:15 1016 30 845 24.95 0.1 32.2 45 -10.4 13.3
22:20 1016 30 845 24.95 -0.1 31.8 46 -10.3 13.5
22:25 1016 30 845 24.95 -0.1 31.8 48 -9.9 14.2
22:30 1016 30 845 24.95 -0.1 31.8 48 -9.8 14.4
22:35 1016 30 845 24.95 -0 31.9 47 -9.9 14.2
22:40 1016 30 845 24.95 0 32 47 -10.1 13.8
22:45 1016 30 845 24.95 0 32 46 -10.4 13.3
22:50 1016 30 845 24.95 0 32 46 -10.4 13.3
22:55 1016 30 845 24.95 -0.1 31.9 46 -10.5 13.1
23:00 1016 30 845 24.95 -0.1 31.8 46 -10.4 13.3
23:05 1016 30 845 24.95 -0.1 31.8 47 -10.2 13.6
23:10 1016 30 845 24.95 -0.1 31.7 47 -10.2 13.6
23:15 1016 30 845 24.95 -0.3 31.4 48 -10.2 13.7
23:20 1016 30 845 24.95 -0.4 31.3 48 -10 14
23:25 1016 30 845 24.95 -0.5 31.1 50 -9.6 14.7
23:30 1016 30 845 24.95 -0.7 30.8 51 -9.6 14.8
23:35 1016 30 845 24.95 -0.6 30.9 51 -9.7 14.6
23:40 1016 30 845 24.95 -0.7 30.7 51 -9.6 14.6
23:45 1016 30 845 24.95 -0.8 30.5 52 -9.6 14.7
23:50 1016 30 845 24.95 -0.8 30.5 52 -9.5 14.9
23:55 1016 30 846 24.98 -1.2 29.9 54 -9.3 15.2
24:00 1016 30 846 24.98 -1.5 29.3 55 -9.4 15